sensor_id;sensor_type;location;lat;lon;timestamp;temperature;humidity
27439;DHT22;14887;51.252;7.470;2023-08-20T00:00:18;20.70;1.00
27439;DHT22;14887;51.252;7.470;2023-08-20T00:02:45;20.70;1.00
27439;DHT22;14887;51.252;7.470;2023-08-20T00:05:12;20.80;1.00
27439;DHT22;14887;51.252;7.470;2023-08-20T00:07:38;20.80;1.00
27439;DHT22;14887;51.252;7.470;2023-08-20T00:10:04;20.70;1.00
27439;DHT22;14887;51.252;7.470;2023-08-20T00:12:31;20.80;1.00
27439;DHT22;14887;51.252;7.470;2023-08-20T00:15:02;20.70;1.00
27439;DHT22;14887;51.252;7.470;2023-08-20T00:17:36;20.60;1.00
27439;DHT22;14887;51.252;7.470;2023-08-20T00:20:03;20.60;1.00
27439;DHT22;14887;51.252;7.470;2023-08-20T00:22:38;20.50;1.00
27439;DHT22;14887;51.252;7.470;2023-08-20T00:25:04;20.50;1.00
27439;DHT22;14887;51.252;7.470;2023-08-20T00:27:31;20.50;1.00
27439;DHT22;14887;51.252;7.470;2023-08-20T00:29:56;20.50;1.00
27439;DHT22;14887;51.252;7.470;2023-08-20T00:32:22;20.40;1.00
27439;DHT22;14887;51.252;7.470;2023-08-20T00:34:47;20.40;1.00
27439;DHT22;14887;51.252;7.470;2023-08-20T00:37:13;20.30;1.00
27439;DHT22;14887;51.252;7.470;2023-08-20T00:39:39;20.30;1.00
27439;DHT22;14887;51.252;7.470;2023-08-20T00:42:05;20.30;1.00
27439;DHT22;14887;51.252;7.470;2023-08-20T00:44:31;20.20;1.00
27439;DHT22;14887;51.252;7.470;2023-08-20T00:46:57;20.20;1.00
27439;DHT22;14887;51.252;7.470;2023-08-20T00:49:24;20.20;1.00
27439;DHT22;14887;51.252;7.470;2023-08-20T00:51:50;20.20;1.00
27439;DHT22;14887;51.252;7.470;2023-08-20T00:54:16;20.10;1.00
27439;DHT22;14887;51.252;7.470;2023-08-20T00:56:42;20.10;1.00
27439;DHT22;14887;51.252;7.470;2023-08-20T00:59:08;20.00;1.00
27439;DHT22;14887;51.252;7.470;2023-08-20T01:01:34;19.90;1.00
27439;DHT22;14887;51.252;7.470;2023-08-20T01:03:59;19.80;1.00
27439;DHT22;14887;51.252;7.470;2023-08-20T01:09:23;19.60;1.00
27439;DHT22;14887;51.252;7.470;2023-08-20T01:11:56;19.70;1.00
27439;DHT22;14887;51.252;7.470;2023-08-20T01:14:23;19.50;1.00
27439;DHT22;14887;51.252;7.470;2023-08-20T01:16:48;19.40;1.00
27439;DHT22;14887;51.252;7.470;2023-08-20T01:19:18;19.30;1.00
27439;DHT22;14887;51.252;7.470;2023-08-20T01:21:56;19.20;1.00
27439;DHT22;14887;51.252;7.470;2023-08-20T01:25:04;19.20;1.00
27439;DHT22;14887;51.252;7.470;2023-08-20T01:27:43;19.20;1.00
27439;DHT22;14887;51.252;7.470;2023-08-20T01:30:14;19.10;1.00
27439;DHT22;14887;51.252;7.470;2023-08-20T01:32:41;19.10;1.00
27439;DHT22;14887;51.252;7.470;2023-08-20T01:35:11;19.10;1.00
27439;DHT22;14887;51.252;7.470;2023-08-20T01:37:39;19.00;1.00
27439;DHT22;14887;51.252;7.470;2023-08-20T01:40:06;19.00;1.00
27439;DHT22;14887;51.252;7.470;2023-08-20T01:42:33;19.00;1.00
27439;DHT22;14887;51.252;7.470;2023-08-20T01:44:59;19.00;1.00
27439;DHT22;14887;51.252;7.470;2023-08-20T01:47:24;19.00;1.00
27439;DHT22;14887;51.252;7.470;2023-08-20T01:49:50;19.00;1.00
27439;DHT22;14887;51.252;7.470;2023-08-20T01:52:19;19.00;1.00
27439;DHT22;14887;51.252;7.470;2023-08-20T01:54:44;19.00;1.00
27439;DHT22;14887;51.252;7.470;2023-08-20T01:57:10;19.00;1.00
27439;DHT22;14887;51.252;7.470;2023-08-20T01:59:35;18.90;1.00
27439;DHT22;14887;51.252;7.470;2023-08-20T02:02:01;18.80;1.00
27439;DHT22;14887;51.252;7.470;2023-08-20T02:04:27;18.90;1.00
27439;DHT22;14887;51.252;7.470;2023-08-20T02:06:53;18.90;1.00
27439;DHT22;14887;51.252;7.470;2023-08-20T02:09:19;18.90;2.30
27439;DHT22;14887;51.252;7.470;2023-08-20T02:11:45;18.90;5.00
27439;DHT22;14887;51.252;7.470;2023-08-20T02:14:11;18.90;7.30
27439;DHT22;14887;51.252;7.470;2023-08-20T02:16:36;18.80;6.90
27439;DHT22;14887;51.252;7.470;2023-08-20T02:19:02;18.80;6.70
27439;DHT22;14887;51.252;7.470;2023-08-20T02:21:30;18.80;7.70
27439;DHT22;14887;51.252;7.470;2023-08-20T02:23:55;18.80;10.80
27439;DHT22;14887;51.252;7.470;2023-08-20T02:26:21;18.70;9.80
27439;DHT22;14887;51.252;7.470;2023-08-20T02:28:47;18.70;12.60
27439;DHT22;14887;51.252;7.470;2023-08-20T02:31:12;18.90;16.60
27439;DHT22;14887;51.252;7.470;2023-08-20T02:33:38;18.80;16.10
27439;DHT22;14887;51.252;7.470;2023-08-20T02:36:04;18.70;14.40
27439;DHT22;14887;51.252;7.470;2023-08-20T02:38:30;18.70;15.60
27439;DHT22;14887;51.252;7.470;2023-08-20T02:40:55;18.70;17.30
27439;DHT22;14887;51.252;7.470;2023-08-20T02:43:21;18.60;19.60
27439;DHT22;14887;51.252;7.470;2023-08-20T02:45:46;18.60;23.30
27439;DHT22;14887;51.252;7.470;2023-08-20T02:48:13;18.60;27.70
27439;DHT22;14887;51.252;7.470;2023-08-20T02:50:39;18.70;32.80
27439;DHT22;14887;51.252;7.470;2023-08-20T02:53:05;18.80;39.40
27439;DHT22;14887;51.252;7.470;2023-08-20T02:55:32;18.90;42.20
27439;DHT22;14887;51.252;7.470;2023-08-20T02:57:58;19.10;45.20
27439;DHT22;14887;51.252;7.470;2023-08-20T03:00:24;19.10;37.40
27439;DHT22;14887;51.252;7.470;2023-08-20T03:02:50;19.10;31.50
27439;DHT22;14887;51.252;7.470;2023-08-20T03:05:15;19.10;29.00
27439;DHT22;14887;51.252;7.470;2023-08-20T03:07:41;19.10;26.30
27439;DHT22;14887;51.252;7.470;2023-08-20T03:10:06;19.10;24.70
27439;DHT22;14887;51.252;7.470;2023-08-20T03:12:32;19.20;24.60
27439;DHT22;14887;51.252;7.470;2023-08-20T03:14:59;19.20;21.80
27439;DHT22;14887;51.252;7.470;2023-08-20T03:17:25;19.30;20.40
27439;DHT22;14887;51.252;7.470;2023-08-20T03:19:58;19.30;17.90
27439;DHT22;14887;51.252;7.470;2023-08-20T03:22:25;19.30;13.90
27439;DHT22;14887;51.252;7.470;2023-08-20T03:24:51;19.40;8.00
27439;DHT22;14887;51.252;7.470;2023-08-20T03:27:17;19.30;1.00
27439;DHT22;14887;51.252;7.470;2023-08-20T03:29:43;19.10;1.00
27439;DHT22;14887;51.252;7.470;2023-08-20T03:32:09;19.10;1.00
27439;DHT22;14887;51.252;7.470;2023-08-20T03:34:34;19.10;1.00
27439;DHT22;14887;51.252;7.470;2023-08-20T03:37:01;19.00;1.90
27439;DHT22;14887;51.252;7.470;2023-08-20T03:39:26;19.10;8.10
27439;DHT22;14887;51.252;7.470;2023-08-20T03:41:52;19.10;8.00
27439;DHT22;14887;51.252;7.470;2023-08-20T03:44:19;19.00;5.10
27439;DHT22;14887;51.252;7.470;2023-08-20T03:46:44;18.90;6.80
27439;DHT22;14887;51.252;7.470;2023-08-20T03:49:10;18.90;8.40
27439;DHT22;14887;51.252;7.470;2023-08-20T03:51:36;18.90;7.40
27439;DHT22;14887;51.252;7.470;2023-08-20T03:54:02;18.80;9.10
27439;DHT22;14887;51.252;7.470;2023-08-20T03:56:28;18.80;10.70
27439;DHT22;14887;51.252;7.470;2023-08-20T03:58:54;18.70;12.80
27439;DHT22;14887;51.252;7.470;2023-08-20T04:01:20;18.70;15.70
27439;DHT22;14887;51.252;7.470;2023-08-20T04:03:46;18.70;17.70
27439;DHT22;14887;51.252;7.470;2023-08-20T04:06:12;18.70;20.10
27439;DHT22;14887;51.252;7.470;2023-08-20T04:08:38;18.70;21.80
27439;DHT22;14887;51.252;7.470;2023-08-20T04:11:03;18.70;25.10
27439;DHT22;14887;51.252;7.470;2023-08-20T04:13:29;18.70;27.60
27439;DHT22;14887;51.252;7.470;2023-08-20T04:15:55;18.80;29.40
27439;DHT22;14887;51.252;7.470;2023-08-20T04:18:21;18.90;28.50
27439;DHT22;14887;51.252;7.470;2023-08-20T04:20:50;18.80;20.80
27439;DHT22;14887;51.252;7.470;2023-08-20T04:23:16;18.70;19.00
27439;DHT22;14887;51.252;7.470;2023-08-20T04:25:41;18.80;16.30
27439;DHT22;14887;51.252;7.470;2023-08-20T04:28:07;18.70;12.90
27439;DHT22;14887;51.252;7.470;2023-08-20T04:30:34;18.80;10.90
27439;DHT22;14887;51.252;7.470;2023-08-20T04:33:00;18.70;7.40
27439;DHT22;14887;51.252;7.470;2023-08-20T04:35:26;18.70;6.20
27439;DHT22;14887;51.252;7.470;2023-08-20T04:37:51;18.70;5.40
27439;DHT22;14887;51.252;7.470;2023-08-20T04:40:17;18.60;5.50
27439;DHT22;14887;51.252;7.470;2023-08-20T04:42:42;18.60;6.40
27439;DHT22;14887;51.252;7.470;2023-08-20T04:45:08;18.60;9.00
27439;DHT22;14887;51.252;7.470;2023-08-20T04:47:35;18.60;10.60
27439;DHT22;14887;51.252;7.470;2023-08-20T04:50:00;18.50;13.00
27439;DHT22;14887;51.252;7.470;2023-08-20T04:52:26;18.50;12.00
27439;DHT22;14887;51.252;7.470;2023-08-20T04:54:52;18.60;12.60
27439;DHT22;14887;51.252;7.470;2023-08-20T04:57:17;18.60;16.40
27439;DHT22;14887;51.252;7.470;2023-08-20T04:59:43;18.70;17.60
27439;DHT22;14887;51.252;7.470;2023-08-20T05:02:11;18.70;16.70
27439;DHT22;14887;51.252;7.470;2023-08-20T05:04:38;18.80;19.60
27439;DHT22;14887;51.252;7.470;2023-08-20T05:07:04;19.00;25.30
27439;DHT22;14887;51.252;7.470;2023-08-20T05:09:30;19.00;20.40
27439;DHT22;14887;51.252;7.470;2023-08-20T05:11:55;19.30;21.20
27439;DHT22;14887;51.252;7.470;2023-08-20T05:14:21;19.40;10.20
27439;DHT22;14887;51.252;7.470;2023-08-20T05:16:46;19.60;1.00
27439;DHT22;14887;51.252;7.470;2023-08-20T05:19:12;19.70;1.00
27439;DHT22;14887;51.252;7.470;2023-08-20T05:21:38;19.80;1.00
27439;DHT22;14887;51.252;7.470;2023-08-20T05:24:04;19.70;1.00
27439;DHT22;14887;51.252;7.470;2023-08-20T05:26:29;19.80;1.00
27439;DHT22;14887;51.252;7.470;2023-08-20T05:28:55;19.70;1.00
27439;DHT22;14887;51.252;7.470;2023-08-20T05:31:21;19.80;1.00
27439;DHT22;14887;51.252;7.470;2023-08-20T05:33:46;19.80;1.00
27439;DHT22;14887;51.252;7.470;2023-08-20T05:36:14;19.90;1.00
27439;DHT22;14887;51.252;7.470;2023-08-20T05:38:39;20.00;1.00
27439;DHT22;14887;51.252;7.470;2023-08-20T05:41:07;20.20;1.00
27439;DHT22;14887;51.252;7.470;2023-08-20T05:43:33;20.40;1.00
27439;DHT22;14887;51.252;7.470;2023-08-20T05:45:58;20.60;1.00
27439;DHT22;14887;51.252;7.470;2023-08-20T05:48:24;20.80;1.00
27439;DHT22;14887;51.252;7.470;2023-08-20T05:50:49;21.00;1.00
27439;DHT22;14887;51.252;7.470;2023-08-20T05:53:15;21.10;1.00
27439;DHT22;14887;51.252;7.470;2023-08-20T05:55:40;21.30;1.00
27439;DHT22;14887;51.252;7.470;2023-08-20T05:58:06;21.60;1.00
27439;DHT22;14887;51.252;7.470;2023-08-20T06:00:32;21.90;1.00
27439;DHT22;14887;51.252;7.470;2023-08-20T06:02:57;22.10;1.00
27439;DHT22;14887;51.252;7.470;2023-08-20T06:05:23;22.50;1.00
27439;DHT22;14887;51.252;7.470;2023-08-20T06:07:48;22.70;1.00
27439;DHT22;14887;51.252;7.470;2023-08-20T06:10:14;22.40;1.00
27439;DHT22;14887;51.252;7.470;2023-08-20T06:12:39;22.20;1.00
27439;DHT22;14887;51.252;7.470;2023-08-20T06:15:05;22.00;1.00
27439;DHT22;14887;51.252;7.470;2023-08-20T06:17:31;21.90;1.00
27439;DHT22;14887;51.252;7.470;2023-08-20T06:19:57;21.80;1.00
27439;DHT22;14887;51.252;7.470;2023-08-20T06:22:23;21.80;1.00
27439;DHT22;14887;51.252;7.470;2023-08-20T06:24:48;21.80;1.00
27439;DHT22;14887;51.252;7.470;2023-08-20T06:27:14;21.80;1.00
27439;DHT22;14887;51.252;7.470;2023-08-20T06:29:39;21.90;1.00
27439;DHT22;14887;51.252;7.470;2023-08-20T06:32:05;21.80;1.00
27439;DHT22;14887;51.252;7.470;2023-08-20T06:34:30;21.70;1.00
27439;DHT22;14887;51.252;7.470;2023-08-20T06:36:56;22.20;1.00
27439;DHT22;14887;51.252;7.470;2023-08-20T06:39:21;23.50;1.00
27439;DHT22;14887;51.252;7.470;2023-08-20T06:41:47;24.20;99.90
27439;DHT22;14887;51.252;7.470;2023-08-20T06:44:13;24.60;99.90
27439;DHT22;14887;51.252;7.470;2023-08-20T06:46:39;25.30;98.10
27439;DHT22;14887;51.252;7.470;2023-08-20T06:49:05;25.60;99.90
27439;DHT22;14887;51.252;7.470;2023-08-20T06:51:31;26.10;99.90
27439;DHT22;14887;51.252;7.470;2023-08-20T06:53:56;26.10;99.90
27439;DHT22;14887;51.252;7.470;2023-08-20T06:56:22;26.70;87.00
27439;DHT22;14887;51.252;7.470;2023-08-20T06:58:48;26.80;20.00
27439;DHT22;14887;51.252;7.470;2023-08-20T07:01:13;27.40;1.00
27439;DHT22;14887;51.252;7.470;2023-08-20T07:03:41;28.20;1.00
27439;DHT22;14887;51.252;7.470;2023-08-20T07:06:08;28.80;1.00
27439;DHT22;14887;51.252;7.470;2023-08-20T07:08:37;29.60;1.00
27439;DHT22;14887;51.252;7.470;2023-08-20T07:11:07;30.20;1.00
27439;DHT22;14887;51.252;7.470;2023-08-20T07:13:32;30.30;1.00
27439;DHT22;14887;51.252;7.470;2023-08-20T07:15:58;31.20;1.00
27439;DHT22;14887;51.252;7.470;2023-08-20T07:18:24;31.40;1.00
27439;DHT22;14887;51.252;7.470;2023-08-20T07:20:50;31.40;99.90
27439;DHT22;14887;51.252;7.470;2023-08-20T07:23:16;31.20;99.90
27439;DHT22;14887;51.252;7.470;2023-08-20T07:25:42;31.50;99.90
27439;DHT22;14887;51.252;7.470;2023-08-20T07:28:08;31.80;99.90
27439;DHT22;14887;51.252;7.470;2023-08-20T07:30:34;32.00;99.90
27439;DHT22;14887;51.252;7.470;2023-08-20T07:33:00;32.20;99.90
27439;DHT22;14887;51.252;7.470;2023-08-20T07:35:26;32.10;99.90
27439;DHT22;14887;51.252;7.470;2023-08-20T07:37:52;32.30;99.90
27439;DHT22;14887;51.252;7.470;2023-08-20T07:40:17;33.20;99.90
27439;DHT22;14887;51.252;7.470;2023-08-20T07:42:43;33.40;99.90
27439;DHT22;14887;51.252;7.470;2023-08-20T07:45:09;33.80;99.90
27439;DHT22;14887;51.252;7.470;2023-08-20T07:47:36;33.30;99.90
27439;DHT22;14887;51.252;7.470;2023-08-20T07:50:02;33.90;99.90
27439;DHT22;14887;51.252;7.470;2023-08-20T07:52:28;34.00;99.90
27439;DHT22;14887;51.252;7.470;2023-08-20T07:54:53;33.90;99.90
27439;DHT22;14887;51.252;7.470;2023-08-20T07:57:19;34.00;99.90
27439;DHT22;14887;51.252;7.470;2023-08-20T07:59:44;34.00;99.90
27439;DHT22;14887;51.252;7.470;2023-08-20T08:02:10;34.50;99.90
27439;DHT22;14887;51.252;7.470;2023-08-20T08:04:36;34.60;99.90
27439;DHT22;14887;51.252;7.470;2023-08-20T08:07:01;35.60;99.90
27439;DHT22;14887;51.252;7.470;2023-08-20T08:09:29;35.90;99.90
27439;DHT22;14887;51.252;7.470;2023-08-20T08:11:55;36.40;99.90
27439;DHT22;14887;51.252;7.470;2023-08-20T08:14:21;36.70;99.90
27439;DHT22;14887;51.252;7.470;2023-08-20T08:16:47;36.70;99.90
27439;DHT22;14887;51.252;7.470;2023-08-20T08:19:13;37.00;99.90
27439;DHT22;14887;51.252;7.470;2023-08-20T08:21:39;36.90;99.90
27439;DHT22;14887;51.252;7.470;2023-08-20T08:24:05;36.40;99.90
27439;DHT22;14887;51.252;7.470;2023-08-20T08:26:31;36.40;99.90
27439;DHT22;14887;51.252;7.470;2023-08-20T08:28:57;35.80;99.90
27439;DHT22;14887;51.252;7.470;2023-08-20T08:31:23;36.00;99.90
27439;DHT22;14887;51.252;7.470;2023-08-20T08:33:48;35.70;99.90
27439;DHT22;14887;51.252;7.470;2023-08-20T08:36:14;35.20;99.90
27439;DHT22;14887;51.252;7.470;2023-08-20T08:38:42;35.40;99.90
27439;DHT22;14887;51.252;7.470;2023-08-20T08:41:11;35.40;99.90
27439;DHT22;14887;51.252;7.470;2023-08-20T08:43:38;36.30;99.90
27439;DHT22;14887;51.252;7.470;2023-08-20T08:46:07;36.40;99.90
27439;DHT22;14887;51.252;7.470;2023-08-20T08:48:34;36.50;99.90
27439;DHT22;14887;51.252;7.470;2023-08-20T08:51:01;37.00;99.90
27439;DHT22;14887;51.252;7.470;2023-08-20T08:53:26;37.00;99.90
27439;DHT22;14887;51.252;7.470;2023-08-20T08:55:52;37.30;99.90
27439;DHT22;14887;51.252;7.470;2023-08-20T08:58:18;37.40;99.90
27439;DHT22;14887;51.252;7.470;2023-08-20T09:00:43;37.40;99.90
27439;DHT22;14887;51.252;7.470;2023-08-20T09:03:09;37.50;99.90
27439;DHT22;14887;51.252;7.470;2023-08-20T09:05:59;37.30;99.90
27439;DHT22;14887;51.252;7.470;2023-08-20T09:08:28;36.80;99.90
27439;DHT22;14887;51.252;7.470;2023-08-20T09:10:55;36.80;99.90
27439;DHT22;14887;51.252;7.470;2023-08-20T09:13:34;36.00;99.90
27439;DHT22;14887;51.252;7.470;2023-08-20T09:16:03;36.50;99.90
27439;DHT22;14887;51.252;7.470;2023-08-20T09:18:29;36.80;99.90
27439;DHT22;14887;51.252;7.470;2023-08-20T09:20:57;37.00;99.90
27439;DHT22;14887;51.252;7.470;2023-08-20T09:23:23;37.40;99.90
27439;DHT22;14887;51.252;7.470;2023-08-20T09:25:53;36.30;99.90
27439;DHT22;14887;51.252;7.470;2023-08-20T09:28:18;35.10;99.90
27439;DHT22;14887;51.252;7.470;2023-08-20T09:30:58;34.90;99.90
27439;DHT22;14887;51.252;7.470;2023-08-20T09:33:27;35.10;99.90
27439;DHT22;14887;51.252;7.470;2023-08-20T09:35:53;35.90;99.90
27439;DHT22;14887;51.252;7.470;2023-08-20T09:38:23;36.20;99.90
27439;DHT22;14887;51.252;7.470;2023-08-20T09:40:52;36.20;99.90
27439;DHT22;14887;51.252;7.470;2023-08-20T09:43:19;36.20;99.90
27439;DHT22;14887;51.252;7.470;2023-08-20T09:45:46;36.20;99.90
27439;DHT22;14887;51.252;7.470;2023-08-20T09:48:15;35.90;99.90
27439;DHT22;14887;51.252;7.470;2023-08-20T09:50:43;35.40;99.90
27439;DHT22;14887;51.252;7.470;2023-08-20T09:53:58;34.30;99.90
27439;DHT22;14887;51.252;7.470;2023-08-20T09:56:28;33.10;99.90
27439;DHT22;14887;51.252;7.470;2023-08-20T09:58:56;31.80;99.90
27439;DHT22;14887;51.252;7.470;2023-08-20T10:01:22;31.00;99.90
27439;DHT22;14887;51.252;7.470;2023-08-20T10:03:48;30.30;99.90
27439;DHT22;14887;51.252;7.470;2023-08-20T10:06:14;30.00;99.90
27439;DHT22;14887;51.252;7.470;2023-08-20T10:08:40;30.50;99.90
27439;DHT22;14887;51.252;7.470;2023-08-20T10:11:06;31.00;99.90
27439;DHT22;14887;51.252;7.470;2023-08-20T10:13:32;31.80;99.90
27439;DHT22;14887;51.252;7.470;2023-08-20T10:15:58;32.40;99.90
27439;DHT22;14887;51.252;7.470;2023-08-20T10:18:24;33.10;99.90
27439;DHT22;14887;51.252;7.470;2023-08-20T10:20:50;33.20;99.90
27439;DHT22;14887;51.252;7.470;2023-08-20T10:23:22;32.90;99.90
27439;DHT22;14887;51.252;7.470;2023-08-20T10:25:48;32.50;99.90
27439;DHT22;14887;51.252;7.470;2023-08-20T10:28:25;32.00;99.90
27439;DHT22;14887;51.252;7.470;2023-08-20T10:31:06;31.50;99.90
27439;DHT22;14887;51.252;7.470;2023-08-20T10:33:38;31.10;99.90
27439;DHT22;14887;51.252;7.470;2023-08-20T10:36:18;30.80;99.90
27439;DHT22;14887;51.252;7.470;2023-08-20T10:38:48;31.00;99.90
27439;DHT22;14887;51.252;7.470;2023-08-20T10:41:15;30.60;99.90
27439;DHT22;14887;51.252;7.470;2023-08-20T10:43:47;30.30;99.90
27439;DHT22;14887;51.252;7.470;2023-08-20T10:46:21;30.50;99.90
27439;DHT22;14887;51.252;7.470;2023-08-20T10:51:18;30.90;99.90
27439;DHT22;14887;51.252;7.470;2023-08-20T10:54:09;31.40;99.90
27439;DHT22;14887;51.252;7.470;2023-08-20T10:56:43;32.00;99.90
27439;DHT22;14887;51.252;7.470;2023-08-20T10:59:15;32.70;99.90
27439;DHT22;14887;51.252;7.470;2023-08-20T11:01:44;32.80;99.90
27439;DHT22;14887;51.252;7.470;2023-08-20T11:04:10;33.00;99.90
27439;DHT22;14887;51.252;7.470;2023-08-20T11:06:37;33.50;99.90
27439;DHT22;14887;51.252;7.470;2023-08-20T11:09:04;34.00;99.90
27439;DHT22;14887;51.252;7.470;2023-08-20T11:11:30;34.30;99.90
27439;DHT22;14887;51.252;7.470;2023-08-20T11:14:03;33.70;99.90
27439;DHT22;14887;51.252;7.470;2023-08-20T11:16:29;33.00;99.90
27439;DHT22;14887;51.252;7.470;2023-08-20T11:18:57;31.90;99.90
27439;DHT22;14887;51.252;7.470;2023-08-20T11:21:23;31.10;99.90
27439;DHT22;14887;51.252;7.470;2023-08-20T11:23:49;30.50;99.90
27439;DHT22;14887;51.252;7.470;2023-08-20T11:26:14;30.30;99.90
27439;DHT22;14887;51.252;7.470;2023-08-20T11:28:45;30.40;99.90
27439;DHT22;14887;51.252;7.470;2023-08-20T11:31:12;30.80;99.90
27439;DHT22;14887;51.252;7.470;2023-08-20T11:33:37;31.10;99.90
27439;DHT22;14887;51.252;7.470;2023-08-20T11:36:07;31.40;99.90
27439;DHT22;14887;51.252;7.470;2023-08-20T11:38:32;31.00;99.90
27439;DHT22;14887;51.252;7.470;2023-08-20T11:40:58;31.10;99.90
27439;DHT22;14887;51.252;7.470;2023-08-20T11:43:27;31.30;99.90
27439;DHT22;14887;51.252;7.470;2023-08-20T11:45:53;31.50;99.90
27439;DHT22;14887;51.252;7.470;2023-08-20T11:48:20;32.10;99.90
27439;DHT22;14887;51.252;7.470;2023-08-20T11:50:47;32.40;99.90
27439;DHT22;14887;51.252;7.470;2023-08-20T11:53:13;32.20;99.90
27439;DHT22;14887;51.252;7.470;2023-08-20T11:55:42;31.60;99.90
27439;DHT22;14887;51.252;7.470;2023-08-20T11:58:14;31.60;99.90
27439;DHT22;14887;51.252;7.470;2023-08-20T12:00:40;31.80;99.90
27439;DHT22;14887;51.252;7.470;2023-08-20T12:03:07;32.50;99.90
27439;DHT22;14887;51.252;7.470;2023-08-20T12:05:33;33.00;99.90
27439;DHT22;14887;51.252;7.470;2023-08-20T12:08:01;33.30;99.90
27439;DHT22;14887;51.252;7.470;2023-08-20T12:10:28;33.50;99.90
27439;DHT22;14887;51.252;7.470;2023-08-20T12:12:56;33.10;99.90
27439;DHT22;14887;51.252;7.470;2023-08-20T12:15:23;33.50;99.90
27439;DHT22;14887;51.252;7.470;2023-08-20T12:18:03;33.70;99.90
27439;DHT22;14887;51.252;7.470;2023-08-20T12:20:31;33.50;99.90
27439;DHT22;14887;51.252;7.470;2023-08-20T12:23:02;33.40;99.90
27439;DHT22;14887;51.252;7.470;2023-08-20T12:25:33;33.50;99.90
27439;DHT22;14887;51.252;7.470;2023-08-20T12:28:03;33.70;99.90
27439;DHT22;14887;51.252;7.470;2023-08-20T12:30:33;34.00;99.90
27439;DHT22;14887;51.252;7.470;2023-08-20T12:33:03;33.90;99.90
27439;DHT22;14887;51.252;7.470;2023-08-20T12:35:29;33.80;99.90
27439;DHT22;14887;51.252;7.470;2023-08-20T12:37:55;33.50;99.90
27439;DHT22;14887;51.252;7.470;2023-08-20T12:40:21;33.10;99.90
27439;DHT22;14887;51.252;7.470;2023-08-20T12:42:47;32.90;99.90
27439;DHT22;14887;51.252;7.470;2023-08-20T12:45:13;32.90;99.90
27439;DHT22;14887;51.252;7.470;2023-08-20T12:47:39;33.50;99.90
27439;DHT22;14887;51.252;7.470;2023-08-20T12:50:06;34.10;99.90
27439;DHT22;14887;51.252;7.470;2023-08-20T12:52:32;35.20;99.90
27439;DHT22;14887;51.252;7.470;2023-08-20T12:54:59;36.20;99.90
27439;DHT22;14887;51.252;7.470;2023-08-20T12:57:25;36.70;99.90
27439;DHT22;14887;51.252;7.470;2023-08-20T12:59:50;35.90;99.90
27439;DHT22;14887;51.252;7.470;2023-08-20T13:02:17;34.80;99.90
27439;DHT22;14887;51.252;7.470;2023-08-20T13:04:43;34.50;99.90
27439;DHT22;14887;51.252;7.470;2023-08-20T13:07:09;33.90;99.90
27439;DHT22;14887;51.252;7.470;2023-08-20T13:09:35;35.00;99.90
27439;DHT22;14887;51.252;7.470;2023-08-20T13:12:01;35.60;99.90
27439;DHT22;14887;51.252;7.470;2023-08-20T13:14:32;37.10;99.90
27439;DHT22;14887;51.252;7.470;2023-08-20T13:16:58;38.00;99.90
27439;DHT22;14887;51.252;7.470;2023-08-20T13:19:23;38.70;99.90
27439;DHT22;14887;51.252;7.470;2023-08-20T13:21:49;39.20;99.90
27439;DHT22;14887;51.252;7.470;2023-08-20T13:24:15;39.50;99.90
27439;DHT22;14887;51.252;7.470;2023-08-20T13:26:40;38.70;99.90
27439;DHT22;14887;51.252;7.470;2023-08-20T13:29:06;37.70;99.90
27439;DHT22;14887;51.252;7.470;2023-08-20T13:31:31;35.90;99.90
27439;DHT22;14887;51.252;7.470;2023-08-20T13:33:57;34.70;99.90
27439;DHT22;14887;51.252;7.470;2023-08-20T13:36:23;33.50;99.90
27439;DHT22;14887;51.252;7.470;2023-08-20T13:38:49;32.40;99.90
27439;DHT22;14887;51.252;7.470;2023-08-20T13:41:14;32.50;99.90
27439;DHT22;14887;51.252;7.470;2023-08-20T13:43:40;33.80;99.90
27439;DHT22;14887;51.252;7.470;2023-08-20T13:46:05;35.40;99.90
27439;DHT22;14887;51.252;7.470;2023-08-20T13:48:31;36.70;99.90
27439;DHT22;14887;51.252;7.470;2023-08-20T13:50:56;38.30;99.90
27439;DHT22;14887;51.252;7.470;2023-08-20T13:53:22;39.60;99.90
27439;DHT22;14887;51.252;7.470;2023-08-20T13:55:47;40.00;99.90
27439;DHT22;14887;51.252;7.470;2023-08-20T13:58:13;40.50;99.90
27439;DHT22;14887;51.252;7.470;2023-08-20T14:00:38;39.50;99.90
27439;DHT22;14887;51.252;7.470;2023-08-20T14:03:04;38.90;99.90
27439;DHT22;14887;51.252;7.470;2023-08-20T14:05:30;39.20;99.90
27439;DHT22;14887;51.252;7.470;2023-08-20T14:07:56;39.90;99.90
27439;DHT22;14887;51.252;7.470;2023-08-20T14:10:21;40.00;99.90
27439;DHT22;14887;51.252;7.470;2023-08-20T14:12:47;40.30;99.90
27439;DHT22;14887;51.252;7.470;2023-08-20T14:15:13;40.70;99.90
27439;DHT22;14887;51.252;7.470;2023-08-20T14:17:40;41.10;99.90
27439;DHT22;14887;51.252;7.470;2023-08-20T14:20:06;41.40;99.90
27439;DHT22;14887;51.252;7.470;2023-08-20T14:22:33;40.70;99.90
27439;DHT22;14887;51.252;7.470;2023-08-20T14:24:58;38.80;99.90
27439;DHT22;14887;51.252;7.470;2023-08-20T14:27:24;38.30;99.90
27439;DHT22;14887;51.252;7.470;2023-08-20T14:29:49;38.90;99.90
27439;DHT22;14887;51.252;7.470;2023-08-20T14:32:15;39.50;99.90
27439;DHT22;14887;51.252;7.470;2023-08-20T14:34:40;40.10;99.90
27439;DHT22;14887;51.252;7.470;2023-08-20T14:37:06;40.30;99.90
27439;DHT22;14887;51.252;7.470;2023-08-20T14:39:32;40.10;99.90
27439;DHT22;14887;51.252;7.470;2023-08-20T14:41:59;40.30;99.90
27439;DHT22;14887;51.252;7.470;2023-08-20T14:44:24;39.20;99.90
27439;DHT22;14887;51.252;7.470;2023-08-20T14:46:50;37.40;99.90
27439;DHT22;14887;51.252;7.470;2023-08-20T14:49:16;37.20;99.90
27439;DHT22;14887;51.252;7.470;2023-08-20T14:51:43;37.40;99.90
27439;DHT22;14887;51.252;7.470;2023-08-20T14:54:09;37.80;99.90
27439;DHT22;14887;51.252;7.470;2023-08-20T14:56:34;36.60;99.90
27439;DHT22;14887;51.252;7.470;2023-08-20T14:59:00;36.50;99.90
27439;DHT22;14887;51.252;7.470;2023-08-20T15:01:26;37.40;99.90
27439;DHT22;14887;51.252;7.470;2023-08-20T15:03:51;37.90;99.90
27439;DHT22;14887;51.252;7.470;2023-08-20T15:06:17;38.70;99.90
27439;DHT22;14887;51.252;7.470;2023-08-20T15:08:46;39.30;99.90
27439;DHT22;14887;51.252;7.470;2023-08-20T15:11:12;39.80;99.90
27439;DHT22;14887;51.252;7.470;2023-08-20T15:13:37;39.30;99.90
27439;DHT22;14887;51.252;7.470;2023-08-20T15:16:03;39.00;99.90
27439;DHT22;14887;51.252;7.470;2023-08-20T15:18:29;39.10;99.90
27439;DHT22;14887;51.252;7.470;2023-08-20T15:20:55;39.20;99.90
27439;DHT22;14887;51.252;7.470;2023-08-20T15:23:21;38.10;99.90
27439;DHT22;14887;51.252;7.470;2023-08-20T15:25:47;36.90;99.90
27439;DHT22;14887;51.252;7.470;2023-08-20T15:28:13;36.10;99.90
27439;DHT22;14887;51.252;7.470;2023-08-20T15:30:38;35.60;99.90
27439;DHT22;14887;51.252;7.470;2023-08-20T15:33:04;36.30;99.90
27439;DHT22;14887;51.252;7.470;2023-08-20T15:35:30;36.90;99.90
27439;DHT22;14887;51.252;7.470;2023-08-20T15:37:55;37.60;99.90